Time;durP1;ratioP1;P1;durP2;ratioP2;P2;SDS_P1;SDS_P2;PMS_P1;PMS_P2;Temp;Humidity;BMP_temperature;BMP_pressure;BME280_temperature;BME280_humidity;BME280_pressure;Samples;Min_cycle;Max_cycle;Signal;HPM_P1;HPM_P2
2022/05/26 00:02:24;;;;;;;11.43;8.20;;;;;;;13.90;83.98;101601.84;5030457;28;20105;-87
2022/05/26 00:04:49;;;;;;;10.63;7.57;;;;;;;13.94;83.93;101595.78;5030379;28;20053;-88
2022/05/26 00:07:15;;;;;;;8.97;7.70;;;;;;;13.92;83.88;101600.59;5031680;28;20029;-88
2022/05/26 00:09:42;;;;;;;11.13;7.83;;;;;;;13.91;83.90;101590.78;5014919;28;20033;-87
2022/05/26 00:12:09;;;;;;;12.37;8.40;;;;;;;13.89;83.95;101586.59;5031153;28;20112;-87
2022/05/26 00:14:34;;;;;;;12.67;8.33;;;;;;;13.90;83.90;101596.41;5028347;28;20026;-88
2022/05/26 00:17:01;;;;;;;10.80;8.20;;;;;;;13.94;83.62;101601.22;5019276;28;20044;-88
2022/05/26 00:19:26;;;;;;;11.03;8.00;;;;;;;13.95;84.06;101605.63;5033448;28;20076;-87
2022/05/26 00:21:52;;;;;;;11.50;8.00;;;;;;;13.90;83.89;101602.72;5029976;28;20087;-88
2022/05/26 00:24:19;;;;;;;10.73;7.93;;;;;;;13.95;83.74;101602.91;5012859;28;20032;-87
2022/05/26 00:26:45;;;;;;;13.67;7.93;;;;;;;13.92;83.80;101603.31;5028491;28;20034;-88
2022/05/26 00:29:11;;;;;;;10.87;7.80;;;;;;;13.94;83.60;101600.38;5032206;28;20030;-88
2022/05/26 00:31:37;;;;;;;12.40;8.63;;;;;;;13.93;83.82;101601.44;5029228;28;21032;-88
2022/05/26 00:34:02;;;;;;;10.73;7.90;;;;;;;13.90;83.90;101588.22;4999602;28;20509;-88
2022/05/26 00:36:37;;;;;;;9.37;7.30;;;;;;;13.97;83.88;101603.50;5033320;28;20056;-88
2022/05/26 00:39:24;;;;;;;12.33;7.53;;;;;;;14.00;83.42;101615.88;5029662;28;20065;-88
2022/05/26 00:41:55;;;;;;;11.70;8.00;;;;;;;13.96;84.13;101611.91;5029003;28;20063;-88
2022/05/26 00:44:21;;;;;;;11.27;7.40;;;;;;;13.97;83.92;101613.59;5029123;28;20092;-87
2022/05/26 00:47:08;;;;;;;11.20;7.87;;;;;;;13.96;83.88;101610.00;5028041;28;20068;-88
2022/05/26 00:49:51;;;;;;;10.03;7.40;;;;;;;13.95;83.91;101608.34;5044797;28;20037;-88
2022/05/26 00:52:25;;;;;;;11.20;7.57;;;;;;;13.96;84.17;101611.91;5029676;28;20036;-87
2022/05/26 00:54:53;;;;;;;12.65;7.82;;;;;;;13.96;83.95;101612.72;5029322;28;20048;-87
2022/05/26 00:57:23;;;;;;;12.90;7.27;;;;;;;13.93;84.26;101613.16;5032696;28;20036;-87
2022/05/26 00:59:59;;;;;;;11.93;8.03;;;;;;;13.98;84.00;101610.66;5030361;28;20025;-87
2022/05/26 01:02:33;;;;;;;14.07;7.60;;;;;;;13.93;83.94;101599.53;5031637;28;20426;-87
2022/05/26 01:05:06;;;;;;;13.77;7.57;;;;;;;13.96;83.84;101601.84;5028283;28;20172;-87
2022/05/26 01:07:35;;;;;;;12.23;7.53;;;;;;;13.96;83.90;101607.28;5029359;28;20079;-87
2022/05/26 01:10:02;;;;;;;15.77;8.07;;;;;;;13.94;84.07;101606.69;5029407;28;20575;-88
2022/05/26 01:12:27;;;;;;;12.03;7.73;;;;;;;13.94;84.29;101609.41;5030472;28;20029;-87
2022/05/26 01:14:58;;;;;;;13.07;8.13;;;;;;;13.97;83.98;101614.41;4995354;28;20095;-88
2022/05/26 01:17:42;;;;;;;14.13;8.43;;;;;;;13.96;84.05;101612.72;5029164;28;20033;-87
2022/05/26 01:20:22;;;;;;;14.43;7.97;;;;;;;13.94;83.96;101609.41;5026788;28;20442;-87
2022/05/26 01:23:13;;;;;;;14.60;8.17;;;;;;;13.96;84.36;101618.19;5032061;28;20374;-88
2022/05/26 01:25:56;;;;;;;13.97;8.30;;;;;;;13.97;84.46;101619.84;5036005;28;20028;-88
2022/05/26 01:29:04;;;;;;;17.47;8.40;;;;;;;13.97;84.60;101619.84;5034441;28;20052;-88
2022/05/26 01:31:49;;;;;;;14.73;8.27;;;;;;;13.98;84.24;101616.09;5048342;28;20363;-88
2022/05/26 01:34:45;;;;;;;14.20;8.50;;;;;;;13.97;84.49;101619.84;5033515;28;20167;-88
2022/05/26 01:37:50;;;;;;;16.10;8.80;;;;;;;13.94;84.50;101619.44;5031651;28;20029;-87
2022/05/26 01:40:35;;;;;;;14.15;9.00;;;;;;;13.94;84.72;101608.53;5036392;28;20042;-88
2022/05/26 01:43:13;;;;;;;14.87;8.47;;;;;;;14.02;84.28;101627.41;5039137;28;20053;-88
2022/05/26 01:46:00;;;;;;;14.50;9.57;;;;;;;13.96;84.56;101633.69;5027950;28;20806;-87
2022/05/26 01:48:39;;;;;;;15.67;9.20;;;;;;;14.01;84.11;101636.63;5032093;28;20116;-88
2022/05/26 01:51:27;;;;;;;18.23;9.87;;;;;;;14.01;84.81;101640.16;5033732;28;20030;-87
2022/05/26 01:54:01;;;;;;;19.97;10.20;;;;;;;14.00;84.86;101641.22;5032408;28;20478;-88
2022/05/26 01:56:56;;;;;;;17.42;9.98;;;;;;;14.02;84.83;101644.56;5030380;28;20064;-87
2022/05/26 01:59:34;;;;;;;18.77;10.05;;;;;;;13.98;84.72;101647.94;5034837;28;20119;-87
2022/05/26 02:02:06;;;;;;;19.67;10.53;;;;;;;13.98;84.92;101647.94;5032271;28;20497;-88
2022/05/26 02:04:44;;;;;;;18.33;11.17;;;;;;;13.96;85.24;101645.41;5020220;28;20068;-88
2022/05/26 02:07:24;;;;;;;18.03;10.70;;;;;;;13.99;85.36;101652.34;5030403;28;20029;-87
2022/05/26 02:09:52;;;;;;;20.97;11.37;;;;;;;14.02;84.71;101651.94;5030421;28;20041;-88
2022/05/26 02:12:26;;;;;;;20.97;10.60;;;;;;;13.98;85.22;101656.09;5042848;28;20048;-88
2022/05/26 02:15:04;;;;;;;20.65;11.07;;;;;;;13.96;85.18;101656.31;5035286;28;20029;-88
2022/05/26 02:17:32;;;;;;;21.97;12.23;;;;;;;13.98;85.01;101664.28;5032317;28;20061;-88
2022/05/26 02:20:10;;;;;;;18.90;11.13;;;;;;;13.99;84.89;101652.34;5037610;28;20068;-88
2022/05/26 02:22:49;;;;;;;21.33;11.80;;;;;;;13.93;85.47;101662.22;5029057;28;20032;-87
2022/05/26 02:25:24;;;;;;;21.27;11.30;;;;;;;13.95;85.52;101660.13;5035002;28;20044;-87
2022/05/26 02:27:53;;;;;;;19.07;11.80;;;;;;;13.96;85.53;101661.78;5034038;28;20476;-88
2022/05/26 02:30:21;;;;;;;21.63;11.67;;;;;;;13.94;85.67;101672.06;5032274;28;20116;-88
2022/05/26 02:32:49;;;;;;;24.13;11.70;;;;;;;13.94;85.49;101673.94;5031626;28;21814;-87
2022/05/26 02:35:22;;;;;;;22.20;11.57;;;;;;;13.94;85.36;101676.66;5033145;28;20355;-87
2022/05/26 02:37:52;;;;;;;23.50;11.30;;;;;;;13.90;85.44;101665.38;5032456;28;20032;-87
2022/05/26 02:40:18;;;;;;;21.87;12.07;;;;;;;13.85;85.69;101668.72;5031768;28;20338;-87
2022/05/26 02:42:51;;;;;;;20.97;12.40;;;;;;;13.88;85.74;101667.44;5031601;28;20053;-87
2022/05/26 02:45:25;;;;;;;24.80;11.90;;;;;;;13.86;85.67;101661.41;5035728;28;20029;-87
2022/05/26 02:48:14;;;;;;;20.85;11.50;;;;;;;13.86;85.98;101666.84;5029734;28;20104;-88
2022/05/26 02:51:00;;;;;;;22.70;11.73;;;;;;;13.84;85.82;101675.25;5032085;28;21470;-87
2022/05/26 02:53:37;;;;;;;21.87;11.73;;;;;;;13.89;85.90;101679.22;5031297;28;20036;-88
2022/05/26 02:56:15;;;;;;;22.87;12.10;;;;;;;13.87;85.95;101678.56;5033443;28;20025;-87
2022/05/26 02:59:11;;;;;;;23.63;12.37;;;;;;;13.86;86.16;101677.75;5029271;28;20025;-88
2022/05/26 03:01:47;;;;;;;21.30;12.27;;;;;;;13.80;86.26;101681.31;5032347;28;20032;-88
2022/05/26 03:04:41;;;;;;;25.00;12.63;;;;;;;13.85;86.28;101682.34;5045016;28;20045;-87
2022/05/26 03:07:14;;;;;;;22.77;12.63;;;;;;;13.83;86.56;101683.59;5031364;28;20464;-88
2022/05/26 03:09:41;;;;;;;22.57;12.23;;;;;;;13.75;86.93;101678.38;5031518;28;20469;-88
2022/05/26 03:12:25;;;;;;;23.60;12.67;;;;;;;13.77;86.92;101676.28;5031649;28;20049;-88
2022/05/26 03:14:51;;;;;;;22.90;11.32;;;;;;;13.77;86.93;101684.47;5034165;28;20021;-88
2022/05/26 03:17:16;;;;;;;25.20;12.30;;;;;;;13.74;87.18;101687.63;5032543;28;20039;-88
2022/05/26 03:19:41;;;;;;;24.90;12.57;;;;;;;13.76;86.67;101682.78;5032084;28;20041;-87
2022/05/26 03:22:07;;;;;;;27.27;12.47;;;;;;;13.74;86.97;101690.34;5031231;28;20040;-87
2022/05/26 03:24:33;;;;;;;24.60;12.13;;;;;;;13.72;87.07;101681.53;5030546;28;20216;-87
2022/05/26 03:26:58;;;;;;;24.83;11.77;;;;;;;13.74;86.95;101693.06;5031687;28;20057;-87
2022/05/26 03:29:24;;;;;;;24.60;12.00;;;;;;;13.75;86.84;101698.31;5031504;28;20033;-88
2022/05/26 03:31:49;;;;;;;25.30;12.23;;;;;;;13.71;87.17;101696.19;5030718;28;20087;-87
2022/05/26 03:42:26;;;;;;;28.98;12.30;;;;;;;13.68;86.87;101717.38;5033677;28;20135;-88
2022/05/26 03:44:52;;;;;;;27.00;11.63;;;;;;;13.63;87.29;101710.88;5031807;28;20466;-87
2022/05/26 03:47:18;;;;;;;28.40;12.07;;;;;;;13.66;87.03;101710.47;5030568;28;20029;-87
2022/05/26 03:49:43;;;;;;;23.40;11.87;;;;;;;13.65;87.14;101708.78;5030721;28;20033;-87
2022/05/26 03:52:08;;;;;;;28.63;12.47;;;;;;;13.64;87.48;101710.66;5031923;28;20017;-88
2022/05/26 03:54:34;;;;;;;25.00;11.87;;;;;;;13.56;87.30;101710.03;5032752;28;20061;-87
2022/05/26 03:56:59;;;;;;;26.33;11.67;;;;;;;13.59;87.50;101715.91;5030703;28;20033;-87
2022/05/26 03:59:25;;;;;;;26.30;12.00;;;;;;;13.59;87.39;101718.63;5012832;28;20037;-87
2022/05/26 04:01:51;;;;;;;27.07;10.87;;;;;;;13.58;87.19;101711.50;5029559;28;20366;-87
2022/05/26 04:04:17;;;;;;;28.10;10.57;;;;;;;13.62;87.25;101734.53;5014003;28;20106;-88
2022/05/26 04:06:42;;;;;;;28.33;10.87;;;;;;;13.56;87.28;101729.94;5030824;28;20025;-88
2022/05/26 04:09:08;;;;;;;22.70;10.10;;;;;;;13.61;87.26;101729.31;5021062;28;20033;-88
2022/05/26 04:11:34;;;;;;;23.17;10.23;;;;;;;13.54;87.86;101734.75;5038420;28;20120;-88
2022/05/26 04:13:59;;;;;;;29.97;10.40;;;;;;;13.49;87.62;101727.22;5017568;28;20021;-87
2022/05/26 04:16:25;;;;;;;26.37;9.10;;;;;;;13.53;87.36;101729.53;5037811;28;20040;-87
2022/05/26 04:18:53;;;;;;;25.10;9.43;;;;;;;13.55;87.80;101741.88;5030308;28;20036;-88
2022/05/26 04:21:19;;;;;;;22.33;9.50;;;;;;;13.46;87.76;101745.84;5029551;28;20037;-86
2022/05/26 04:23:44;;;;;;;26.57;9.10;;;;;;;13.53;87.76;101748.59;5029107;28;20037;-85
2022/05/26 04:26:10;;;;;;;25.10;9.50;;;;;;;13.53;88.14;101740.41;4997224;28;20033;-87
2022/05/26 04:28:36;;;;;;;26.63;9.03;;;;;;;13.52;87.86;101739.59;5030647;28;20033;-87
2022/05/26 04:31:03;;;;;;;26.43;8.50;;;;;;;13.56;88.03;101753.59;5014548;28;20054;-86
2022/05/26 04:33:28;;;;;;;29.10;9.73;;;;;;;13.50;88.30;101744.38;5032339;28;20029;-87
2022/05/26 04:35:54;;;;;;;26.03;9.50;;;;;;;13.45;88.02;101749.63;5029760;28;20021;-86
2022/05/26 04:38:20;;;;;;;25.40;9.03;;;;;;;13.45;88.33;101746.91;5029051;28;20478;-87
2022/05/26 04:40:55;;;;;;;26.37;9.77;;;;;;;13.43;88.12;101746.28;5030962;28;20037;-87
2022/05/26 04:43:21;;;;;;;26.30;9.37;;;;;;;13.40;88.20;101758.41;5014142;28;20140;-88
2022/05/26 04:45:46;;;;;;;25.70;9.00;;;;;;;13.44;88.49;101758.84;5011596;28;20432;-87
2022/05/26 04:48:12;;;;;;;25.17;9.40;;;;;;;13.45;88.33;101768.66;5044900;28;20120;-87
2022/05/26 04:50:37;;;;;;;28.80;9.47;;;;;;;13.43;88.57;101770.78;5030021;28;20056;-87
2022/05/26 04:53:03;;;;;;;29.63;9.43;;;;;;;13.44;88.45;101767.03;5032779;28;20028;-87
2022/05/26 04:55:28;;;;;;;26.90;9.23;;;;;;;13.43;88.49;101773.50;5012456;28;20049;-87
2022/05/26 04:57:53;;;;;;;22.77;8.50;;;;;;;13.50;87.91;101780.63;5029876;28;20029;-88
2022/05/26 05:00:20;;;;;;;24.43;8.13;;;;;;;13.55;87.98;101784.63;5029445;28;20034;-86
2022/05/26 05:02:45;;;;;;;25.97;8.87;;;;;;;13.52;88.11;101785.88;5014807;28;20029;-86
2022/05/26 05:05:11;;;;;;;25.03;8.70;;;;;;;13.52;87.62;101785.88;5015590;28;20202;-87
2022/05/26 05:07:37;;;;;;;25.53;8.57;;;;;;;13.53;87.89;101787.56;5028322;28;20033;-86
2022/05/26 05:10:04;;;;;;;26.33;8.73;;;;;;;13.57;87.53;101796.97;5029654;28;20470;-86
2022/05/26 05:12:29;;;;;;;25.03;9.23;;;;;;;13.60;87.89;101807.44;5028131;28;20071;-87
2022/05/26 05:14:56;;;;;;;25.63;9.13;;;;;;;13.59;87.15;101800.31;5030984;28;20040;-87
2022/05/26 05:17:24;;;;;;;29.97;9.70;;;;;;;13.64;87.33;101800.53;5027925;28;21030;-87
2022/05/26 05:19:50;;;;;;;23.37;8.00;;;;;;;13.70;87.09;101807.03;5028490;28;20029;-87
2022/05/26 05:22:25;;;;;;;24.67;8.83;;;;;;;13.69;87.45;101808.06;5023843;28;20087;-87
2022/05/26 05:24:53;;;;;;;23.57;8.80;;;;;;;13.71;87.33;101810.56;5025045;28;20067;-87
2022/05/26 05:27:44;;;;;;;26.27;8.77;;;;;;;13.72;87.45;101821.28;5027062;28;20029;-87
2022/05/26 05:30:17;;;;;;;26.00;9.53;;;;;;;13.80;86.87;101809.31;5023731;28;20025;-87
2022/05/26 05:32:56;;;;;;;21.00;8.13;;;;;;;13.80;87.17;101818.34;5028677;28;20022;-87
2022/05/26 05:35:26;;;;;;;25.17;8.50;;;;;;;13.78;87.72;101816.88;5026312;28;20067;-87
2022/05/26 05:37:52;;;;;;;22.67;7.97;;;;;;;13.80;87.03;101817.50;5026370;28;20052;-87
2022/05/26 05:40:18;;;;;;;26.87;8.10;;;;;;;13.86;86.79;101824.84;5011666;28;20040;-87
2022/05/26 05:42:43;;;;;;;26.37;9.23;;;;;;;13.83;87.50;101827.97;5030766;28;20025;-87
2022/05/26 05:45:09;;;;;;;27.53;8.87;;;;;;;13.87;87.18;101831.97;5027928;28;20033;-87
2022/05/26 05:47:35;;;;;;;25.30;8.40;;;;;;;13.96;86.55;101833.41;4995954;28;20056;-87
2022/05/26 05:50:00;;;;;;;27.40;8.73;;;;;;;13.98;86.99;101828.59;5027647;28;20073;-87
2022/05/26 05:52:26;;;;;;;22.80;7.80;;;;;;;14.08;86.35;101839.06;5028486;28;20997;-85
2022/05/26 05:54:55;;;;;;;23.53;8.53;;;;;;;14.09;85.90;101831.72;5026360;28;20581;-85
2022/05/26 05:57:20;;;;;;;21.03;8.43;;;;;;;14.14;85.59;101831.94;5021411;28;20039;-84
2022/05/26 05:59:45;;;;;;;24.97;7.93;;;;;;;14.16;85.65;101835.31;5022624;28;20021;-85
2022/05/26 06:02:11;;;;;;;25.03;8.33;;;;;;;14.18;85.54;101834.03;5020725;28;21196;-85
2022/05/26 06:04:41;;;;;;;25.23;8.20;;;;;;;14.20;85.34;101836.56;5004105;28;20412;-85
2022/05/26 06:07:11;;;;;;;25.43;8.03;;;;;;;14.24;85.68;101837.81;5019641;28;20041;-85
2022/05/26 06:09:37;;;;;;;23.87;8.10;;;;;;;14.28;85.94;101849.09;5024990;28;20554;-87
2022/05/26 06:12:02;;;;;;;26.83;7.93;;;;;;;14.31;85.32;101849.53;5008085;28;20033;-87
2022/05/26 06:14:28;;;;;;;23.67;8.37;;;;;;;14.37;85.77;101853.28;5011299;28;20072;-87
2022/05/26 06:16:53;;;;;;;22.63;7.70;;;;;;;14.35;84.77;101842.59;5024728;28;20524;-87
2022/05/26 06:19:19;;;;;;;20.27;8.00;;;;;;;14.54;84.44;101853.69;5026162;28;20038;-87
2022/05/26 06:21:44;;;;;;;24.70;8.43;;;;;;;14.60;84.76;101857.44;5008435;28;21391;-87
2022/05/26 06:24:10;;;;;;;24.00;7.00;;;;;;;14.57;84.16;101858.72;5012541;28;21565;-88
2022/05/26 06:26:36;;;;;;;21.50;7.97;;;;;;;14.58;83.97;101871.31;5012402;28;20033;-87
2022/05/26 06:37:14;;;;;;;21.40;7.90;;;;;;;14.97;82.71;101879.59;5019615;28;20144;-88
2022/05/26 06:39:40;;;;;;;22.77;8.30;;;;;;;14.92;82.00;101874.78;5009463;28;20191;-88
2022/05/26 06:42:06;;;;;;;24.03;8.57;;;;;;;14.99;82.49;101891.97;5024528;28;20063;-88
2022/05/26 06:44:38;;;;;;;24.80;8.07;;;;;;;14.98;82.35;101890.28;5025110;28;20044;-87
2022/05/26 06:47:09;;;;;;;22.00;8.03;;;;;;;15.00;81.89;101885.47;5026743;28;20468;-87
2022/05/26 06:49:36;;;;;;;24.43;8.73;;;;;;;15.07;82.23;101893.63;5025469;28;20036;-87
2022/05/26 06:52:03;;;;;;;21.77;8.20;;;;;;;15.08;80.78;101891.72;5024007;28;20504;-87
2022/05/26 06:54:37;;;;;;;22.63;8.10;;;;;;;15.28;80.62;101903.38;5025270;28;20028;-87
2022/05/26 06:57:04;;;;;;;22.92;7.95;;;;;;;15.25;79.04;101897.53;5023486;28;20044;-86
2022/05/26 06:59:29;;;;;;;20.03;7.80;;;;;;;15.18;79.30;101898.41;5023930;28;20045;-87
2022/05/26 07:01:55;;;;;;;18.60;7.90;;;;;;;15.27;79.19;101901.75;5025500;28;20884;-87
2022/05/26 07:04:21;;;;;;;19.60;7.50;;;;;;;15.43;78.94;101899.53;5028000;28;20063;-87
2022/05/26 07:06:54;;;;;;;18.60;7.23;;;;;;;15.38;77.64;101907.53;5028746;28;20144;-88
2022/05/26 07:09:22;;;;;;;20.57;7.67;;;;;;;15.43;76.35;101914.03;5031866;28;20029;-87
2022/05/26 07:11:47;;;;;;;17.67;7.37;;;;;;;15.47;77.24;101900.78;5028223;28;20422;-87
2022/05/26 07:14:13;;;;;;;18.47;6.90;;;;;;;15.47;77.42;101911.72;5030211;28;20030;-87
2022/05/26 07:16:40;;;;;;;17.70;7.30;;;;;;;15.59;76.63;101907.22;5033500;28;20033;-87
2022/05/26 07:19:06;;;;;;;22.13;7.70;;;;;;;15.72;76.77;101913.66;5028770;28;20026;-87
2022/05/26 07:21:31;;;;;;;17.03;6.50;;;;;;;15.90;74.36;101923.84;5029236;28;20036;-87
2022/05/26 07:23:57;;;;;;;19.23;6.20;;;;;;;15.96;72.67;101923.81;4995397;28;20037;-87
2022/05/26 07:26:24;;;;;;;14.13;6.07;;;;;;;16.04;72.52;101923.53;5006320;28;20517;-87
2022/05/26 07:28:53;;;;;;;15.70;6.20;;;;;;;16.14;74.19;101925.81;5021580;28;20029;-87
2022/05/26 07:31:18;;;;;;;19.00;6.70;;;;;;;16.04;72.60;101929.00;5024211;28;20044;-87
2022/05/26 07:33:44;;;;;;;17.60;6.80;;;;;;;16.15;74.92;101937.56;5010043;28;20033;-87
2022/05/26 07:41:16;;;;;;;18.50;6.43;;;;;;;16.22;72.09;101937.50;5022735;28;20032;-87
2022/05/26 07:41:40;;;;;;;17.70;6.88;;;;;;;16.41;71.53;101943.88;5024220;28;20136;-87
2022/05/26 07:44:06;;;;;;;16.00;5.97;;;;;;;16.41;71.36;101941.13;5023757;28;20185;-87
2022/05/26 07:46:31;;;;;;;18.20;6.40;;;;;;;16.39;71.44;101935.88;5022865;28;20033;-89
2022/05/26 07:48:57;;;;;;;16.93;5.93;;;;;;;16.18;70.68;101942.56;5009476;28;20128;-89
2022/05/26 07:51:22;;;;;;;16.63;6.07;;;;;;;16.12;71.99;101946.22;5024264;28;20116;-88
2022/05/26 07:53:48;;;;;;;14.57;6.27;;;;;;;16.09;71.82;101943.91;5022561;28;20728;-89
2022/05/26 07:56:14;;;;;;;14.33;6.13;;;;;;;16.11;71.87;101933.59;5021919;28;20587;-88
2022/05/26 07:58:39;;;;;;;14.23;6.10;;;;;;;16.23;71.17;101950.13;5022038;28;20132;-89
2022/05/26 08:01:07;;;;;;;14.60;5.27;;;;;;;16.26;70.32;101945.03;5039060;28;20044;-88
2022/05/26 08:03:34;;;;;;;12.97;5.17;;;;;;;16.42;70.50;101945.56;5021574;28;20432;-88
2022/05/26 08:06:00;;;;;;;12.77;5.70;;;;;;;16.45;69.13;101956.03;5022159;28;20075;-88
2022/05/26 08:08:26;;;;;;;14.23;5.60;;;;;;;16.46;69.01;101957.72;5023363;28;20573;-89
2022/05/26 08:10:52;;;;;;;12.40;5.27;;;;;;;16.52;69.17;101951.31;5021754;28;20481;-89
2022/05/26 08:13:18;;;;;;;13.83;5.43;;;;;;;16.65;70.20;101961.31;5022452;28;20030;-87
2022/05/26 08:15:43;;;;;;;14.93;5.03;;;;;;;16.82;68.18;101961.56;5021907;28;20041;-86
2022/05/26 08:18:09;;;;;;;18.97;6.47;;;;;;;17.03;70.83;101961.16;5022152;28;20045;-87
2022/05/26 08:20:35;;;;;;;16.40;5.50;;;;;;;17.12;68.81;101958.97;5023100;28;20044;-86
2022/05/26 08:23:01;;;;;;;11.73;5.30;;;;;;;17.29;67.47;101953.69;5022278;28;20099;-87
2022/05/26 08:25:27;;;;;;;15.47;5.80;;;;;;;17.35;65.79;101955.53;5023087;28;20082;-87
2022/05/26 08:27:52;;;;;;;14.63;5.90;;;;;;;17.53;66.85;101957.38;5023226;28;20025;-87
2022/05/26 08:30:18;;;;;;;13.57;5.97;;;;;;;17.65;67.42;101954.72;5015730;28;20295;-86
2022/05/26 08:32:44;;;;;;;14.90;5.83;;;;;;;17.67;66.05;101970.91;5021721;28;20041;-88
2022/05/26 08:35:10;;;;;;;13.70;5.23;;;;;;;17.54;65.68;101970.03;5021279;28;20017;-87
2022/05/26 08:37:36;;;;;;;15.00;5.50;;;;;;;17.30;64.75;101966.31;5021766;28;20413;-87
2022/05/26 08:40:02;;;;;;;13.37;4.93;;;;;;;17.48;66.76;101973.69;5021197;28;20043;-88
2022/05/26 08:42:31;;;;;;;14.67;4.53;;;;;;;17.69;66.34;101977.84;5020298;28;20535;-85
2022/05/26 08:45:04;;;;;;;10.97;4.20;;;;;;;17.97;64.01;101970.09;5019966;28;20543;-85
2022/05/26 08:47:34;;;;;;;13.20;4.60;;;;;;;18.15;63.92;101980.16;5021858;28;20029;-85
2022/05/26 08:50:07;;;;;;;11.93;4.43;;;;;;;18.55;63.72;101993.22;5022452;28;20033;-85
2022/05/26 08:52:35;;;;;;;12.38;4.95;;;;;;;18.71;63.22;101977.94;5021773;28;20095;-85
2022/05/26 08:55:06;;;;;;;13.30;5.15;;;;;;;18.90;62.24;101981.41;5021720;28;20032;-85
2022/05/26 08:57:39;;;;;;;10.82;4.28;;;;;;;18.96;61.40;101985.97;5021674;28;20031;-84
2022/05/26 09:00:08;;;;;;;14.07;5.43;;;;;;;19.30;61.38;101990.81;5022947;28;20029;-85
2022/05/26 09:02:36;;;;;;;12.48;4.70;;;;;;;19.31;58.31;101998.81;5022472;28;20389;-85
2022/05/26 09:05:11;;;;;;;10.40;4.05;;;;;;;19.23;58.39;101990.94;5022026;28;20038;-85
2022/05/26 09:13:24;;;;;;;11.52;3.90;;;;;;;19.45;58.14;101973.78;5029576;28;20032;-84
2022/05/26 09:15:50;;;;;;;9.10;3.80;;;;;;;19.51;57.04;101979.13;5026331;28;20029;-85
2022/05/26 09:18:18;;;;;;;9.02;3.72;;;;;;;19.60;56.04;101985.09;5027009;28;20032;-85
2022/05/26 09:20:46;;;;;;;10.73;4.50;;;;;;;19.43;58.24;101987.75;5028214;28;20026;-85
2022/05/26 09:23:13;;;;;;;11.48;4.55;;;;;;;19.58;58.42;101992.72;5027351;28;20028;-85
2022/05/26 09:25:53;;;;;;;9.90;4.47;;;;;;;19.81;58.16;101991.00;5027963;28;20040;-85
2022/05/26 09:28:31;;;;;;;8.65;4.18;;;;;;;19.98;58.11;102002.88;5029642;28;20038;-85
2022/05/26 09:31:17;;;;;;;11.43;4.60;;;;;;;20.07;58.50;102006.91;5028019;28;20401;-84
2022/05/26 09:33:42;;;;;;;14.10;5.15;;;;;;;19.92;55.11;101997.53;5028636;28;20029;-85
2022/05/26 09:36:25;;;;;;;11.57;4.00;;;;;;;19.45;54.96;101998.50;5011660;28;20037;-85
2022/05/26 09:38:52;;;;;;;13.03;4.43;;;;;;;19.66;56.95;102022.59;5029194;28;20022;-84
2022/05/26 09:41:17;;;;;;;11.57;4.13;;;;;;;19.55;54.71;102015.22;5016511;28;20295;-83
2022/05/26 09:44:24;;;;;;;10.15;4.22;;;;;;;19.40;56.25;102029.47;4988318;28;20068;-82
2022/05/26 09:46:54;;;;;;;11.20;4.30;;;;;;;19.38;57.38;102021.47;5004998;28;20041;-84
2022/05/26 09:49:26;;;;;;;10.65;3.88;;;;;;;19.34;55.94;102027.72;5019338;28;20086;-83
2022/05/26 09:52:06;;;;;;;8.40;3.70;;;;;;;19.27;56.69;102027.84;5019181;28;20037;-84
2022/05/26 09:54:33;;;;;;;6.72;3.50;;;;;;;18.92;55.78;102022.38;5020501;28;20100;-83
2022/05/26 09:57:12;;;;;;;10.63;3.63;;;;;;;18.92;56.28;102025.97;5018364;28;20061;-83
2022/05/26 09:59:42;;;;;;;11.25;3.88;;;;;;;18.91;56.48;102021.53;5017089;28;20033;-83
2022/05/26 10:02:32;;;;;;;8.27;2.92;;;;;;;18.94;56.02;102032.03;5017057;28;20037;-84
2022/05/26 10:05:14;;;;;;;10.27;3.30;;;;;;;18.75;58.05;102041.44;5017081;28;20132;-84
2022/05/26 10:08:08;;;;;;;8.73;3.00;;;;;;;18.57;57.42;102032.22;5018362;28;20029;-84
2022/05/26 10:10:41;;;;;;;6.85;3.17;;;;;;;18.48;56.84;102031.75;5023989;28;20091;-84
2022/05/26 10:13:20;;;;;;;9.73;3.70;;;;;;;18.64;57.33;102030.19;5023026;28;20021;-83
2022/05/26 10:16:11;;;;;;;10.23;4.27;;;;;;;18.80;57.56;102025.09;5023047;28;20482;-84
2022/05/26 10:18:57;;;;;;;7.72;2.92;;;;;;;18.95;56.97;102027.41;5022458;28;20040;-84
2022/05/26 10:21:39;;;;;;;10.20;4.22;;;;;;;18.79;57.60;102029.75;5018086;28;21483;-84
2022/05/26 10:24:16;;;;;;;10.88;3.78;;;;;;;18.67;57.07;102037.97;5022862;28;20037;-84
2022/05/26 10:27:01;;;;;;;9.45;3.50;;;;;;;18.73;56.68;102037.03;5024419;28;20048;-85
2022/05/26 10:29:45;;;;;;;8.68;3.20;;;;;;;19.00;55.57;102033.84;5023829;28;20060;-84
2022/05/26 10:32:19;;;;;;;7.65;2.97;;;;;;;19.20;54.78;102038.09;5023893;28;20026;-85
2022/05/26 10:35:00;;;;;;;;;;;;;;;19.48;56.41;102033.78;5022678;28;20032;-84
2022/05/26 10:37:59;;;;;;;7.07;2.55;;;;;;;19.43;55.20;102042.72;5023732;28;20297;-84
2022/05/26 10:40:30;;;;;;;6.15;2.45;;;;;;;19.38;52.89;102040.72;5023899;28;20469;-84
2022/05/26 10:43:04;;;;;;;6.10;3.28;;;;;;;19.48;56.34;102042.03;5022985;28;20567;-84
2022/05/26 10:45:32;;;;;;;7.70;3.90;;;;;;;19.67;54.29;102035.25;5023204;28;20037;-84
2022/05/26 10:48:10;;;;;;;9.75;3.83;;;;;;;19.73;55.01;102039.78;5024610;28;20029;-84
2022/05/26 10:50:47;;;;;;;7.13;2.97;;;;;;;19.98;53.33;102040.56;5021625;28;20037;-84
2022/05/26 10:53:28;;;;;;;13.50;3.70;;;;;;;20.03;52.81;102038.75;5022105;28;20029;-85
2022/05/26 10:56:31;;;;;;;7.55;3.15;;;;;;;20.02;53.53;102036.25;5020653;28;20132;-85
2022/05/26 10:59:13;;;;;;;9.25;2.85;;;;;;;19.78;52.47;102024.47;5000643;28;20123;-85
2022/05/26 11:01:47;;;;;;;7.78;4.20;;;;;;;19.90;52.74;102036.28;5021390;28;20053;-85
2022/05/26 11:04:40;;;;;;;8.45;4.13;;;;;;;20.05;53.39;102035.75;5027567;28;20033;-85
2022/05/26 11:07:11;;;;;;;10.88;5.10;;;;;;;19.90;53.13;102039.88;5030502;28;20069;-84
2022/05/26 11:09:42;;;;;;;7.70;4.70;;;;;;;19.87;53.36;102047.78;5028390;28;20040;-84
2022/05/26 11:12:17;;;;;;;10.52;3.72;;;;;;;19.72;52.27;102054.63;5030729;28;20070;-84
2022/05/26 11:17:57;;;;;;;11.38;5.40;;;;;;;19.34;55.15;102041.47;5026555;28;20099;-85
2022/05/26 11:20:30;;;;;;;9.82;7.07;;;;;;;19.21;54.85;102039.78;5028283;28;20071;-84
2022/05/26 11:23:03;;;;;;;13.80;9.02;;;;;;;19.16;55.35;102040.53;5027329;28;20021;-84
2022/05/26 11:25:32;;;;;;;11.73;7.17;;;;;;;19.21;56.48;102040.63;5027711;28;20048;-84
2022/05/26 11:28:25;;;;;;;12.95;6.20;;;;;;;19.18;55.26;102040.28;5027810;28;20126;-84
2022/05/26 11:36:40;;;;;;;6.80;2.60;;;;;;;19.39;52.74;102038.78;5028319;28;20060;-84
2022/05/26 11:39:16;;;;;;;8.27;3.45;;;;;;;19.33;53.01;102026.88;5030140;28;20037;-84
2022/05/26 11:41:47;;;;;;;8.85;4.00;;;;;;;19.15;53.51;102027.84;5028429;28;20029;-84
2022/05/26 11:44:36;;;;;;;8.57;4.47;;;;;;;19.16;55.21;102023.19;5030348;28;20045;-84
2022/05/26 11:47:26;;;;;;;8.15;4.50;;;;;;;19.20;54.86;102024.38;5025381;28;20041;-84
2022/05/26 11:49:57;;;;;;;9.77;4.55;;;;;;;19.48;55.44;102020.84;5027907;28;20393;-84
2022/05/26 11:52:37;;;;;;;9.35;4.93;;;;;;;19.65;53.85;102025.59;5029543;28;20025;-85
2022/05/26 11:55:15;;;;;;;10.55;5.32;;;;;;;19.77;55.72;102025.53;5028463;28;20608;-84
2022/05/26 11:57:40;;;;;;;13.32;7.00;;;;;;;19.51;52.90;102028.59;5026827;28;20565;-84
2022/05/26 12:00:17;;;;;;;10.13;6.93;;;;;;;19.53;53.60;102018.22;5028271;28;20052;-84
2022/05/26 12:02:45;;;;;;;12.70;7.80;;;;;;;19.47;54.40;102023.84;5026670;28;20061;-84
2022/05/26 12:05:28;;;;;;;13.35;7.97;;;;;;;19.39;55.55;102030.56;5030384;28;20037;-84
2022/05/26 12:07:56;;;;;;;14.30;8.50;;;;;;;19.35;55.03;102016.47;5028897;28;20124;-85
2022/05/26 12:10:25;;;;;;;14.00;8.52;;;;;;;19.39;57.56;102011.31;5027437;28;20037;-84
2022/05/26 12:13:19;;;;;;;13.88;10.48;;;;;;;19.60;55.94;102020.81;5042795;28;20036;-84